Warwick, RI

12:27 PM EST on December 18, 2014 (GMT -0500)
Green State | Change Station
CLOSE
Current Station
Airport
Location: Providence,
Elevation: 62 ft
Nearby Weather Stations

Elev 62 ft 41.72 °N, 71.43 °W | Updated 36 minutes ago

Mostly Cloudy
Mostly Cloudy
42 °F
Feels Like 34 °F
N
16
Wind Variable Wind from WNW
Gusts 29 mph

Today
High -- | Low -- °F
--% Chance of Precip.
Yesterday
High -- | Low -- °F
Precip. -- in
7:07 AM 4:16 PM
Waning Crescent, 13% visible
Pressure 29.83 in
Visibility 10.0 miles
Clouds Mostly Cloudy 3600 ft
Windchill 34 °F
Dew Point 27 °F
Humidity 55%
Rainfall 0.00 in
Snow Depth Not available.
UV 1 out of 12
Pollen .10 out of 12
Air Quality Not available.
Flu Activity Not available.
METAR KPVD 181651Z 30014G25KT 10SM BKN036 06/M03 A2982 RMK AO2 PK WND 29026/1633 SLP099 T00561028 $

More Conditions Fewer Conditions

Pressure 29.83 in
Visibility 10.0 miles
Clouds Mostly Cloudy 3600 ft
Windchill 34 °F
Dew Point 27 °F
Humidity 55%
Rainfall 0.00 in
Snow Depth Not available.
UV 1 out of 12
Pollen .10 out of 12
Air Quality Not available.
Flu Activity Not available.
METAR KPVD 181651Z 30014G25KT 10SM BKN036 06/M03 A2982 RMK AO2 PK WND 29026/1633 SLP099 T00561028 $

More Conditions Fewer Conditions

10-Day Weather Forecast

Almanac

Astronomy

Dec. 18, 2014 Rise Set
Actual Time
Civil Twilight
Nautical Twilight
Astronomical Twilight
Moon
Length of Visible Light
Length of Day
Tomorrow will be .
, % of the Moon is Illuminated

Today's Extremes

State Highs State Lows

Community

WunderPhotos

Upload Photos

1,778,964 photos uploaded!

WunderBlogs® & News

Nearby

Air Quality

  Air Quality AQ Index Pollutant
Not available.

Snow Depth

Station Depth Elevation

Earthquake Activity

City Distance Mag. Time & Date
Minimum magnitude displayed is 2.5.

Coastal Water Temperatures

Place Temperature

Nearby Weather Stations